Time;durP1;ratioP1;P1;durP2;ratioP2;P2;SDS_P1;SDS_P2;PMS_P1;PMS_P2;Temp;Humidity;BMP_temperature;BMP_pressure;BME280_temperature;BME280_humidity;BME280_pressure;Samples;Min_cycle;Max_cycle;Signal;HPM_P1;HPM_P2
2023/03/18 00:02:00;;;;;;;;;;;;;;;;;;5017672;28;6700;-78
2023/03/18 00:04:26;;;;;;;;;;;;;;;;;;5019417;28;7051;-78
2023/03/18 00:06:51;;;;;;;;;;;;;;;;;;5018241;28;7485;-78
2023/03/18 00:09:17;;;;;;;;;;;;;;;;;;5017723;28;7128;-78
2023/03/18 00:11:42;;;;;;;;;;;;;;;;;;5017933;28;7049;-78
2023/03/18 00:14:08;;;;;;;;;;;;;;;;;;5017058;28;7133;-78
2023/03/18 00:16:35;;;;;;;;;;;;;;;;;;5017548;28;6990;-78
2023/03/18 00:19:02;;;;;;;;;;;;;;;;;;5018845;28;6995;-78
2023/03/18 00:21:29;;;;;;;;;;;;;;;;;;5017908;28;7164;-78
2023/03/18 00:24:05;;;;;;;;;;;;;;;;;;5017202;28;7025;-72
2023/03/18 00:26:31;;;;;;;;;;;;;;;;;;5016675;28;7084;-72
2023/03/18 00:31:59;;;;;;;;;;;;;;;;;;5017028;28;6948;-72
2023/03/18 00:34:25;;;;;;;;;;;;;;;;;;5016913;28;6948;-72
2023/03/18 00:36:55;;;;;;;;;;;;;;;;;;5006522;28;6842;-72
2023/03/18 00:39:25;;;;;;;;;;;;;;;;;;4999199;28;7443;-72
2023/03/18 00:42:25;;;;;;;;;;;;;;;;;;4998079;28;7148;-72
2023/03/18 00:44:51;;;;;;;;;;;;;;;;;;4997161;28;7458;-72
2023/03/18 00:47:24;;;;;;;;;;;;;;;;;;4996860;28;7669;-72
2023/03/18 00:49:50;;;;;;;;;;;;;;;;;;4998467;28;7171;-73
2023/03/18 00:52:21;;;;;;;;;;;;;;;;;;4996727;28;8426;-72
2023/03/18 00:54:48;;;;;;;;;;;;;;;;;;4997949;28;6959;-78
2023/03/18 00:57:16;;;;;;;;;;;;;;;;;;4997797;28;7099;-78
2023/03/18 00:59:42;;;;;;;;;;;;;;;;;;4980795;28;7192;-78
2023/03/18 01:02:07;;;;;;;;;;;;;;;;;;4997792;28;7042;-78
2023/03/18 01:04:33;;;;;;;;;;;;;;;;;;4999087;28;7144;-78
2023/03/18 01:07:10;;;;;;;;;;;;;;;;;;5008524;28;7114;-78
2023/03/18 01:09:39;;;;;;;;;;;;;;;;;;5016402;28;7182;-72
2023/03/18 01:14:58;;;;;;;;;;;;;;;;;;5017375;28;6915;-72
2023/03/18 01:20:20;;;;;;;;;;;;;;;;;;5018085;28;7027;-71
2023/03/18 01:22:45;;;;;;;;;;;;;;;;;;5016981;28;6814;-71
2023/03/18 01:28:14;;;;;;;;;;;;;;;;;;5017766;28;6700;-72
2023/03/18 01:30:40;;;;;;;;;;;;;;;;;;5018940;28;7141;-72
2023/03/18 01:33:18;;;;;;;;;;;;;;;;;;5018319;28;7505;-72
2023/03/18 01:35:46;;;;;;;;;;;;;;;;;;5017860;28;7055;-72
2023/03/18 01:38:24;;;;;;;;;;;;;;;;;;5016436;28;7165;-72
2023/03/18 01:40:53;;;;;;;;;;;;;;;;;;5016346;28;6956;-72
2023/03/18 01:43:22;;;;;;;;;;;;;;;;;;5018607;28;7298;-72
2023/03/18 01:45:53;;;;;;;;;;;;;;;;;;5017326;28;6933;-72
2023/03/18 01:48:22;;;;;;;;;;;;;;;;;;5016184;28;7092;-72
2023/03/18 01:53:47;;;;;;;;;;;;;;;;;;4997072;28;6914;-72
2023/03/18 01:56:27;;;;;;;;;;;;;;;;;;4996428;28;7216;-72
2023/03/18 01:58:56;;;;;;;;;;;;;;;;;;4995783;28;7825;-77
2023/03/18 02:01:45;;;;;;;;;;;;;;;;;;5012259;28;6971;-78
2023/03/18 02:04:17;;;;;;;;;;;;;;;;;;5001696;28;6954;-78
2023/03/18 02:06:43;;;;;;;;;;;;;;;;;;5015533;28;7051;-78
2023/03/18 02:09:09;;;;;;;;;;;;;;;;;;5016788;28;7143;-78
2023/03/18 02:11:48;;;;;;;;;;;;;;;;;;5015361;28;7111;-78
2023/03/18 02:14:16;;;;;;;;;;;;;;;;;;5016056;28;6901;-78
2023/03/18 02:16:53;;;;;;;;;;;;;;;;;;5017528;28;7087;-78
2023/03/18 02:19:38;;;;;;;;;;;;;;;;;;5019155;28;7262;-78
2023/03/18 02:22:32;;;;;;;;;;;;;;;;;;5017363;28;7076;-78
2023/03/18 02:25:16;;;;;;;;;;;;;;;;;;5018054;28;7082;-78
2023/03/18 02:27:53;;;;;;;;;;;;;;;;;;5018265;28;7162;-78
2023/03/18 02:30:25;;;;;;;;;;;;;;;;;;5017757;28;7187;-78
2023/03/18 02:32:55;;;;;;;;;;;;;;;;;;5018020;28;7160;-78
2023/03/18 02:35:21;;;;;;;;;;;;;;;;;;5015088;28;6957;-78
2023/03/18 02:38:13;;;;;;;;;;;;;;;;;;5016433;28;7114;-78
2023/03/18 02:40:40;;;;;;;;;;;;;;;;;;5016969;28;7113;-78
2023/03/18 02:43:24;;;;;;;;;;;;;;;;;;5015795;28;7040;-78
2023/03/18 02:45:56;;;;;;;;;;;;;;;;;;5016363;28;7158;-78
2023/03/18 02:48:42;;;;;;;;;;;;;;;;;;5015431;28;6917;-71
2023/03/18 02:51:09;;;;;;;;;;;;;;;;;;5016757;28;7193;-71
2023/03/18 02:53:35;;;;;;;;;;;;;;;;;;5017775;28;7265;-72
2023/03/18 02:59:04;;;;;;;;;;;;;;;;;;5015210;28;6803;-78
2023/03/18 03:01:31;;;;;;;;;;;;;;;;;;5015176;28;8722;-78
2023/03/18 03:04:31;;;;;;;;;;;;;;;;;;5014647;28;6998;-77
2023/03/18 03:07:00;;;;;;;;;;;;;;;;;;5017899;28;7080;-78
2023/03/18 03:09:34;;;;;;;;;;;;;;;;;;5017307;28;7036;-78
2023/03/18 03:11:59;;;;;;;;;;;;;;;;;;5021110;28;7248;-78
2023/03/18 03:17:38;;;;;;;;;;;;;;;;;;5017769;28;6999;-78
2023/03/18 03:20:05;;;;;;;;;;;;;;;;;;5020654;28;6979;-78
2023/03/18 03:22:54;;;;;;;;;;;;;;;;;;5021500;28;6989;-78
2023/03/18 03:25:21;;;;;;;;;;;;;;;;;;5019639;28;7087;-78
2023/03/18 03:27:47;;;;;;;;;;;;;;;;;;5018282;28;7091;-78
2023/03/18 03:30:17;;;;;;;;;;;;;;;;;;5020131;28;7128;-78
2023/03/18 03:32:43;;;;;;;;;;;;;;;;;;5020515;28;7100;-78
2023/03/18 03:35:12;;;;;;;;;;;;;;;;;;5019527;28;6945;-78
2023/03/18 03:37:40;;;;;;;;;;;;;;;;;;5021149;28;6967;-78
2023/03/18 03:40:07;;;;;;;;;;;;;;;;;;5019815;28;7065;-78
2023/03/18 03:42:57;;;;;;;;;;;;;;;;;;5018648;28;7049;-78
2023/03/18 03:45:42;;;;;;;;;;;;;;;;;;5017163;28;7224;-78
2023/03/18 03:48:08;;;;;;;;;;;;;;;;;;5020227;28;7059;-78
2023/03/18 03:50:46;;;;;;;;;;;;;;;;;;5019066;28;7248;-78
2023/03/18 03:53:13;;;;;;;;;;;;;;;;;;5019327;28;7164;-78
2023/03/18 03:55:53;;;;;;;;;;;;;;;;;;5018939;28;7126;-78
2023/03/18 03:58:19;;;;;;;;;;;;;;;;;;5018699;28;7734;-72
2023/03/18 04:00:45;;;;;;;;;;;;;;;;;;5019403;28;7142;-72
2023/03/18 04:03:10;;;;;;;;;;;;;;;;;;5018858;28;7142;-72
2023/03/18 04:05:42;;;;;;;;;;;;;;;;;;5017352;28;7396;-72
2023/03/18 04:08:08;;;;;;;;;;;;;;;;;;5018146;28;6933;-72
2023/03/18 04:10:36;;;;;;;;;;;;;;;;;;5019258;28;7323;-72
2023/03/18 04:13:02;;;;;;;;;;;;;;;;;;5019493;28;6997;-78
2023/03/18 04:18:37;;;;;;;;;;;;;;;;;;5018638;28;6698;-78
2023/03/18 04:21:02;;;;;;;;;;;;;;;;;;5016722;28;7195;-78
2023/03/18 04:23:28;;;;;;;;;;;;;;;;;;5019384;28;6829;-78
2023/03/18 04:25:53;;;;;;;;;;;;;;;;;;5018988;28;7195;-78
2023/03/18 04:28:26;;;;;;;;;;;;;;;;;;5019142;28;6967;-78
2023/03/18 04:30:52;;;;;;;;;;;;;;;;;;5017092;28;7056;-78
2023/03/18 04:33:18;;;;;;;;;;;;;;;;;;5017601;28;7431;-78
2023/03/18 04:35:44;;;;;;;;;;;;;;;;;;5017301;28;8159;-78
2023/03/18 04:38:10;;;;;;;;;;;;;;;;;;5016967;28;6847;-78
2023/03/18 04:40:36;;;;;;;;;;;;;;;;;;5017525;28;7185;-78
2023/03/18 04:43:02;;;;;;;;;;;;;;;;;;5018314;28;7148;-78
2023/03/18 04:45:28;;;;;;;;;;;;;;;;;;5018996;28;7198;-78
2023/03/18 04:48:01;;;;;;;;;;;;;;;;;;5018490;28;7232;-78
2023/03/18 04:50:27;;;;;;;;;;;;;;;;;;5018294;28;6882;-78
2023/03/18 04:52:53;;;;;;;;;;;;;;;;;;5017148;28;7073;-78
2023/03/18 04:55:35;;;;;;;;;;;;;;;;;;5017339;28;7016;-78
2023/03/18 04:58:03;;;;;;;;;;;;;;;;;;5018733;28;6967;-78
2023/03/18 05:00:29;;;;;;;;;;;;;;;;;;5016251;28;7173;-78
2023/03/18 05:02:55;;;;;;;;;;;;;;;;;;5016520;28;7029;-78
2023/03/18 05:05:29;;;;;;;;;;;;;;;;;;5016784;28;7228;-78
2023/03/18 05:07:55;;;;;;;;;;;;;;;;;;5017270;28;6919;-78
2023/03/18 05:10:22;;;;;;;;;;;;;;;;;;5019244;28;7203;-78
2023/03/18 05:12:48;;;;;;;;;;;;;;;;;;5017411;28;6855;-79
2023/03/18 05:15:24;;;;;;;;;;;;;;;;;;4998162;28;7238;-78
2023/03/18 05:17:50;;;;;;;;;;;;;;;;;;5018509;28;7265;-78
2023/03/18 05:20:17;;;;;;;;;;;;;;;;;;5019188;28;7381;-78
2023/03/18 05:22:44;;;;;;;;;;;;;;;;;;5016964;28;7242;-78
2023/03/18 05:25:12;;;;;;;;;;;;;;;;;;5017216;28;7218;-78
2023/03/18 05:27:39;;;;;;;;;;;;;;;;;;5017348;28;7069;-78
2023/03/18 05:30:38;;;;;;;;;;;;;;;;;;5017054;28;7321;-78
2023/03/18 05:33:04;;;;;;;;;;;;;;;;;;5017341;28;6829;-78
2023/03/18 05:35:29;;;;;;;;;;;;;;;;;;5017701;28;7044;-78
2023/03/18 05:37:56;;;;;;;;;;;;;;;;;;5015551;28;7342;-78
2023/03/18 05:40:22;;;;;;;;;;;;;;;;;;5017565;28;7218;-78
2023/03/18 05:42:48;;;;;;;;;;;;;;;;;;5017107;28;7680;-78
2023/03/18 05:45:14;;;;;;;;;;;;;;;;;;5017538;28;6909;-78
2023/03/18 05:47:43;;;;;;;;;;;;;;;;;;5017013;28;7050;-76
2023/03/18 05:50:09;;;;;;;;;;;;;;;;;;5017062;28;6897;-78
2023/03/18 05:52:46;;;;;;;;;;;;;;;;;;4996672;28;7220;-78
2023/03/18 05:55:12;;;;;;;;;;;;;;;;;;4999769;28;7061;-78
2023/03/18 05:57:39;;;;;;;;;;;;;;;;;;5016564;28;7247;-78
2023/03/18 06:00:32;;;;;;;;;;;;;;;;;;5003544;28;7154;-78
2023/03/18 06:02:58;;;;;;;;;;;;;;;;;;4975859;28;8084;-78
2023/03/18 06:05:25;;;;;;;;;;;;;;;;;;4994922;28;6953;-78
2023/03/18 06:07:51;;;;;;;;;;;;;;;;;;4995471;28;7405;-78
2023/03/18 06:10:18;;;;;;;;;;;;;;;;;;4997199;28;7138;-78
2023/03/18 06:12:43;;;;;;;;;;;;;;;;;;4997386;28;7417;-78
2023/03/18 06:15:27;;;;;;;;;;;;;;;;;;4997462;28;8153;-78
2023/03/18 06:17:53;;;;;;;;;;;;;;;;;;4976905;28;7179;-78
2023/03/18 06:20:18;;;;;;;;;;;;;;;;;;4988616;28;7172;-78
2023/03/18 06:22:50;;;;;;;;;;;;;;;;;;4995232;28;7224;-78
2023/03/18 06:25:18;;;;;;;;;;;;;;;;;;4994178;28;6957;-78
2023/03/18 06:27:43;;;;;;;;;;;;;;;;;;4994160;28;7470;-78
2023/03/18 06:30:09;;;;;;;;;;;;;;;;;;4983807;28;7162;-78
2023/03/18 06:32:36;;;;;;;;;;;;;;;;;;4996067;28;6992;-78
2023/03/18 06:35:01;;;;;;;;;;;;;;;;;;4994528;28;7051;-77
2023/03/18 06:37:33;;;;;;;;;;;;;;;;;;4997547;28;7197;-78
2023/03/18 06:39:59;;;;;;;;;;;;;;;;;;4995309;28;7302;-71
2023/03/18 06:42:42;;;;;;;;;;;;;;;;;;4995417;28;6820;-75
2023/03/18 06:45:08;;;;;;;;;;;;;;;;;;4984433;28;7127;-74
2023/03/18 06:47:48;;;;;;;;;;;;;;;;;;4991209;28;8202;-74
2023/03/18 06:50:17;;;;;;;;;;;;;;;;;;4999993;28;7062;-74
2023/03/18 06:52:43;;;;;;;;;;;;;;;;;;5001459;28;6918;-74
2023/03/18 06:55:09;;;;;;;;;;;;;;;;;;5001798;28;7126;-74
2023/03/18 06:57:35;;;;;;;;;;;;;;;;;;4999208;28;7436;-74
2023/03/18 07:00:01;;;;;;;;;;;;;;;;;;5000507;28;7379;-74
2023/03/18 07:02:31;;;;;;;;;;;;;;;;;;5016873;28;7139;-74
2023/03/18 07:04:59;;;;;;;;;;;;;;;;;;5019392;28;7162;-74
2023/03/18 07:07:24;;;;;;;;;;;;;;;;;;5018702;28;7368;-74
2023/03/18 07:09:51;;;;;;;;;;;;;;;;;;5020799;28;7364;-74
2023/03/18 07:15:22;;;;;;;;;;;;;;;;;;5020129;28;6686;-74
2023/03/18 07:17:49;;;;;;;;;;;;;;;;;;5019499;28;6977;-74
2023/03/18 07:20:15;;;;;;;;;;;;;;;;;;5018931;28;7146;-74
2023/03/18 07:22:43;;;;;;;;;;;;;;;;;;5018007;28;7128;-74
2023/03/18 07:28:11;;;;;;;;;;;;;;;;;;5018597;28;6694;-75
2023/03/18 07:30:55;;;;;;;;;;;;;;;;;;5021599;28;7344;-75
2023/03/18 07:33:21;;;;;;;;;;;;;;;;;;5020312;28;6968;-79
2023/03/18 07:35:47;;;;;;;;;;;;;;;;;;5017841;28;7445;-80
2023/03/18 07:38:13;;;;;;;;;;;;;;;;;;5017293;28;7656;-80
2023/03/18 07:40:39;;;;;;;;;;;;;;;;;;5017738;28;6981;-80
2023/03/18 07:43:22;;;;;;;;;;;;;;;;;;5019398;28;7100;-80
2023/03/18 07:45:48;;;;;;;;;;;;;;;;;;5019061;28;7331;-80
2023/03/18 07:48:14;;;;;;;;;;;;;;;;;;5020039;28;7026;-80
2023/03/18 07:50:40;;;;;;;;;;;;;;;;;;5020772;28;6950;-80
2023/03/18 07:53:06;;;;;;;;;;;;;;;;;;5018468;28;7595;-80
2023/03/18 07:55:31;;;;;;;;;;;;;;;;;;5019080;28;6934;-80
2023/03/18 07:57:58;;;;;;;;;;;;;;;;;;5013942;28;7192;-80
2023/03/18 08:03:28;;;;;;;;;;;;;;;;;;4998999;28;6951;-80
2023/03/18 08:05:56;;;;;;;;;;;;;;;;;;5010951;28;7057;-80
2023/03/18 08:08:23;;;;;;;;;;;;;;;;;;5018137;28;6980;-80
2023/03/18 08:13:51;;;;;;;;;;;;;;;;;;5017054;28;6700;-79
2023/03/18 08:16:19;;;;;;;;;;;;;;;;;;5019100;28;7054;-79
2023/03/18 08:18:47;;;;;;;;;;;;;;;;;;5016990;28;6985;-78
2023/03/18 08:21:13;;;;;;;;;;;;;;;;;;5017051;28;6963;-79
2023/03/18 08:23:57;;;;;;;;;;;;;;;;;;5016901;28;6976;-79
2023/03/18 08:26:23;;;;;;;;;;;;;;;;;;5016752;28;6960;-79
2023/03/18 08:28:50;;;;;;;;;;;;;;;;;;5263061;23;6832;-75
2023/03/18 08:31:15;;;;;;;;;;;;;;;;;;5075263;28;6886;-80
2023/03/18 08:33:54;;;;;;;;;;;;;;;;;;5076044;28;7831;-79
2023/03/18 08:36:20;;;;;;;;;;;;;;;;;;5196618;22;7200;-78
2023/03/18 08:41:49;;;;;;;;;;;;;;;;;;5076129;28;6704;-80
2023/03/18 08:44:25;;;;;;;;;;;;;;;;;;5076613;28;7011;-78
2023/03/18 08:47:28;;;;;;;;;;;;;;;;;;5076519;28;7075;-79
2023/03/18 08:50:07;;;;;;;;;;;;;;;;;;5076247;28;7190;-78
2023/03/18 08:52:32;;;;;;;;;;;;;;;;;;5075843;28;8688;-78
2023/03/18 08:58:37;;;;;;;;;;;;;;;;;;5075513;28;6714;-79
2023/03/18 09:01:04;;;;;;;;;;;;;;;;;;5074347;28;7244;-79
2023/03/18 09:03:57;;;;;;;;;;;;;;;;;;5055882;28;7236;-79
2023/03/18 09:06:22;;;;;;;;;;;;;;;;;;5075258;28;7207;-79
2023/03/18 09:09:20;;;;;;;;;;;;;;;;;;5075295;28;7157;-79
2023/03/18 09:11:46;;;;;;;;;;;;;;;;;;5113405;23;7312;-75
2023/03/18 09:14:12;;;;;;;;;;;;;;;;;;5069791;28;8664;-79
2023/03/18 09:16:59;;;;;;;;;;;;;;;;;;5057028;28;7216;-80
2023/03/18 09:19:25;;;;;;;;;;;;;;;;;;5070565;28;7245;-79
2023/03/18 09:21:51;;;;;;;;;;;;;;;;;;5068235;28;6993;-79
2023/03/18 09:24:33;;;;;;;;;;;;;;;;;;5066330;28;7429;-79
2023/03/18 09:27:00;;;;;;;;;;;;;;;;;;5070162;28;6883;-78
2023/03/18 09:29:36;;;;;;;;;;;;;;;;;;5066691;28;7053;-70
2023/03/18 09:32:02;;;;;;;;;;;;;;;;;;5074006;28;7340;-72
2023/03/18 09:34:30;;;;;;;;;;;;;;;;;;5056469;28;8518;-73
2023/03/18 09:36:57;;;;;;;;;;;;;;;;;;5073872;28;7081;-72
2023/03/18 09:39:40;;;;;;;;;;;;;;;;;;5069517;28;7019;-72
2023/03/18 09:42:06;;;;;;;;;;;;;;;;;;5062495;28;7228;-72
2023/03/18 09:54:29;;;;;;;;;;;;;;;;;;5059747;28;6803;-73
2023/03/18 09:56:56;;;;;;;;;;;;;;;;;;5065368;28;6877;-75
2023/03/18 09:59:22;;;;;;;;;;;;;;;;;;5072923;28;7054;-75
2023/03/18 10:05:28;;;;;;;;;;;;;;;;;;5074665;28;7049;-79
2023/03/18 10:07:58;;;;;;;;;;;;;;;;;;5074496;28;7203;-79
2023/03/18 10:10:29;;;;;;;;;;;;;;;;;;5097995;22;6937;-74
2023/03/18 10:13:05;;;;;;;;;;;;;;;;;;5260397;23;8473;-74
2023/03/18 10:15:41;;;;;;;;;;;;;;;;;;5054334;28;6997;-74
2023/03/18 10:21:03;;;;;;;;;;;;;;;;;;5052312;28;7130;-79
2023/03/18 10:23:34;;;;;;;;;;;;;;;;;;5053283;28;7105;-75
2023/03/18 10:26:21;;;;;;;;;;;;;;;;;;5218597;23;8461;-74
2023/03/18 10:37:25;;;;;;;;;;;;;;;;;;5074384;28;6851;-78
2023/03/18 10:39:52;;;;;;;;;;;;;;;;;;5181131;23;6898;-78
2023/03/18 10:42:49;;;;;;;;;;;;;;;;;;5056060;28;7242;-78
2023/03/18 10:45:23;;;;;;;;;;;;;;;;;;5072514;28;6980;-81
2023/03/18 10:48:03;;;;;;;;;;;;;;;;;;5074522;28;7363;-79
2023/03/18 10:50:37;;;;;;;;;;;;;;;;;;5074247;28;6925;-80
2023/03/18 10:53:23;;;;;;;;;;;;;;;;;;5075104;28;7405;-80
2023/03/18 10:56:01;;;;;;;;;;;;;;;;;;5080060;28;6909;-80
2023/03/18 11:03:54;;;;;;;;;;;;;;;;;;5191639;22;7295;-76
2023/03/18 11:09:41;;;;;;;;;;;;;;;;;;5053885;28;6802;-72
2023/03/18 11:15:47;;;;;;;;;;;;;;;;;;4993143;28;6830;-78
2023/03/18 11:18:15;;;;;;;;;;;;;;;;;;4992505;28;7402;-78
2023/03/18 11:21:00;;;;;;;;;;;;;;;;;;4995095;28;7671;-77
2023/03/18 11:23:47;;;;;;;;;;;;;;;;;;4972720;28;6905;-80
2023/03/18 11:29:34;;;;;;;;;;;;;;;;;;4983608;28;6849;-79
2023/03/18 11:32:00;;;;;;;;;;;;;;;;;;4985107;28;7098;-79
2023/03/18 11:34:53;;;;;;;;;;;;;;;;;;4994018;28;7625;-80
2023/03/18 11:37:18;;;;;;;;;;;;;;;;;;4982720;28;7256;-79
2023/03/18 11:42:31;;;;;;;;;;;;;;;;;;4989496;28;7058;-78
2023/03/18 11:48:00;;;;;;;;;;;;;;;;;;4985492;28;7139;-79
2023/03/18 11:53:41;;;;;;;;;;;;;;;;;;5060671;28;7029;-79
2023/03/18 11:59:23;;;;;;;;;;;;;;;;;;5057683;28;7042;-79
2023/03/18 12:02:03;;;;;;;;;;;;;;;;;;5057402;28;7043;-78
2023/03/18 12:04:29;;;;;;;;;;;;;;;;;;5053646;28;6974;-78
2023/03/18 12:07:18;;;;;;;;;;;;;;;;;;5056846;28;7127;-78
2023/03/18 12:12:58;;;;;;;;;;;;;;;;;;4956943;28;7026;-73
2023/03/18 12:15:27;;;;;;;;;;;;;;;;;;4958426;28;6941;-72
2023/03/18 12:18:13;;;;;;;;;;;;;;;;;;4956245;28;7599;-72
2023/03/18 12:23:33;;;;;;;;;;;;;;;;;;4956808;28;7070;-72
2023/03/18 12:26:26;;;;;;;;;;;;;;;;;;4970654;28;7277;-73
2023/03/18 12:29:30;;;;;;;;;;;;;;;;;;4967435;28;7180;-78
2023/03/18 12:32:14;;;;;;;;;;;;;;;;;;4960779;28;7112;-72
2023/03/18 12:34:49;;;;;;;;;;;;;;;;;;4976613;28;6971;-73
2023/03/18 12:37:41;;;;;;;;;;;;;;;;;;4975542;28;7225;-72
2023/03/18 12:40:11;;;;;;;;;;;;;;;;;;4975425;28;7009;-72
2023/03/18 12:42:58;;;;;;;;;;;;;;;;;;4974603;28;7106;-72
2023/03/18 12:45:28;;;;;;;;;;;;;;;;;;4976340;28;7123;-78
2023/03/18 12:47:59;;;;;;;;;;;;;;;;;;4959091;28;8502;-78
2023/03/18 12:50:31;;;;;;;;;;;;;;;;;;5060771;28;7151;-78
2023/03/18 12:53:19;;;;;;;;;;;;;;;;;;5076001;28;7529;-78
2023/03/18 12:55:48;;;;;;;;;;;;;;;;;;5076104;28;7044;-78
2023/03/18 13:01:41;;;;;;;;;;;;;;;;;;5078287;28;7127;-78
2023/03/18 13:04:13;;;;;;;;;;;;;;;;;;5075605;28;7173;-80
2023/03/18 13:06:41;;;;;;;;;;;;;;;;;;5060068;28;7654;-79
2023/03/18 13:09:27;;;;;;;;;;;;;;;;;;5056245;28;7573;-79
2023/03/18 13:18:26;;;;;;;;;;;;;;;;;;5055560;28;6718;-78
2023/03/18 13:20:57;;;;;;;;;;;;;;;;;;5072078;28;7088;-79
2023/03/18 13:26:34;;;;;;;;;;;;;;;;;;5077093;28;6805;-78
2023/03/18 13:29:09;;;;;;;;;;;;;;;;;;5078400;28;7015;-79
2023/03/18 13:32:00;;;;;;;;;;;;;;;;;;5055425;28;6997;-73
2023/03/18 13:34:30;;;;;;;;;;;;;;;;;;5055208;28;7064;-72
2023/03/18 13:40:20;;;;;;;;;;;;;;;;;;5074947;28;6954;-72
2023/03/18 13:42:48;;;;;;;;;;;;;;;;;;5075113;28;7357;-72
2023/03/18 13:45:50;;;;;;;;;;;;;;;;;;5074980;28;6880;-72
2023/03/18 13:48:44;;;;;;;;;;;;;;;;;;5074555;28;7131;-73
2023/03/18 13:57:47;;;;;;;;;;;;;;;;;;5074556;28;7104;-72
2023/03/18 14:00:33;;;;;;;;;;;;;;;;;;5074809;28;7050;-72
2023/03/18 14:06:08;;;;;;;;;;;;;;;;;;5075186;28;6751;-72
2023/03/18 14:11:46;;;;;;;;;;;;;;;;;;5074518;28;7000;-73
2023/03/18 14:14:33;;;;;;;;;;;;;;;;;;5076652;28;7310;-72
2023/03/18 14:16:59;;;;;;;;;;;;;;;;;;5074654;28;7500;-72
2023/03/18 14:19:38;;;;;;;;;;;;;;;;;;5075813;28;7182;-72
2023/03/18 14:22:06;;;;;;;;;;;;;;;;;;5074731;28;7346;-72
2023/03/18 14:24:45;;;;;;;;;;;;;;;;;;5074493;28;7030;-72
2023/03/18 14:27:19;;;;;;;;;;;;;;;;;;5074629;28;7183;-72
2023/03/18 14:32:57;;;;;;;;;;;;;;;;;;5074406;28;7003;-72
2023/03/18 14:35:31;;;;;;;;;;;;;;;;;;5074127;28;8325;-72
2023/03/18 14:41:11;;;;;;;;;;;;;;;;;;5074393;28;7051;-72
2023/03/18 14:43:42;;;;;;;;;;;;;;;;;;5074385;28;7519;-72
2023/03/18 14:46:13;;;;;;;;;;;;;;;;;;5074116;28;7246;-79
2023/03/18 14:48:56;;;;;;;;;;;;;;;;;;5074635;28;7189;-79
2023/03/18 14:51:25;;;;;;;;;;;;;;;;;;5074459;28;7907;-72
2023/03/18 14:56:56;;;;;;;;;;;;;;;;;;5074055;28;7096;-78
2023/03/18 14:59:32;;;;;;;;;;;;;;;;;;5074319;28;7029;-78
2023/03/18 15:01:58;;;;;;;;;;;;;;;;;;5069055;28;6944;-78
2023/03/18 15:04:25;;;;;;;;;;;;;;;;;;5058807;28;7125;-78
2023/03/18 15:07:03;;;;;;;;;;;;;;;;;;5057370;28;7212;-79
2023/03/18 15:09:57;;;;;;;;;;;;;;;;;;5058569;28;7160;-77
2023/03/18 15:12:25;;;;;;;;;;;;;;;;;;5058064;28;7437;-78
2023/03/18 15:14:50;;;;;;;;;;;;;;;;;;5057798;28;7114;-78
2023/03/18 15:20:28;;;;;;;;;;;;;;;;;;5061095;28;6758;-77
2023/03/18 15:23:02;;;;;;;;;;;;;;;;;;5059671;28;7611;-78
2023/03/18 15:25:28;;;;;;;;;;;;;;;;;;5058093;28;7138;-77
2023/03/18 15:28:01;;;;;;;;;;;;;;;;;;5058453;28;7268;-77
2023/03/18 15:30:30;;;;;;;;;;;;;;;;;;5060532;28;6987;-77
2023/03/18 15:33:27;;;;;;;;;;;;;;;;;;5057809;28;7093;-73
2023/03/18 15:35:54;;;;;;;;;;;;;;;;;;5057820;28;6979;-73
2023/03/18 15:38:23;;;;;;;;;;;;;;;;;;5057819;28;7431;-73
2023/03/18 15:41:12;;;;;;;;;;;;;;;;;;5061520;28;7013;-73
2023/03/18 15:46:45;;;;;;;;;;;;;;;;;;5039582;28;6731;-74
2023/03/18 15:49:25;;;;;;;;;;;;;;;;;;5057285;28;7243;-73
2023/03/18 15:51:57;;;;;;;;;;;;;;;;;;5057073;28;7470;-73
2023/03/18 15:54:54;;;;;;;;;;;;;;;;;;5056884;28;7484;-73
2023/03/18 15:57:26;;;;;;;;;;;;;;;;;;5060957;28;7903;-73
2023/03/18 15:59:52;;;;;;;;;;;;;;;;;;5053148;28;7583;-74
2023/03/18 16:02:18;;;;;;;;;;;;;;;;;;5037189;28;7543;-74
2023/03/18 16:04:45;;;;;;;;;;;;;;;;;;5043768;28;7070;-74
2023/03/18 16:07:27;;;;;;;;;;;;;;;;;;5061047;28;7242;-75
2023/03/18 16:09:53;;;;;;;;;;;;;;;;;;5056918;28;7191;-76
2023/03/18 16:15:21;;;;;;;;;;;;;;;;;;5060466;28;6985;-76
2023/03/18 16:17:51;;;;;;;;;;;;;;;;;;5058181;28;7250;-77
2023/03/18 16:20:20;;;;;;;;;;;;;;;;;;5056862;28;7254;-77
2023/03/18 16:25:52;;;;;;;;;;;;;;;;;;5058644;28;6740;-77
2023/03/18 16:28:19;;;;;;;;;;;;;;;;;;5056538;28;6976;-80
2023/03/18 16:30:46;;;;;;;;;;;;;;;;;;5056571;28;7188;-79
2023/03/18 16:33:13;;;;;;;;;;;;;;;;;;5056269;28;7909;-79
2023/03/18 16:35:39;;;;;;;;;;;;;;;;;;5056366;28;7466;-78
2023/03/18 16:38:11;;;;;;;;;;;;;;;;;;5055963;28;7073;-78
2023/03/18 16:40:37;;;;;;;;;;;;;;;;;;5056390;28;7061;-81
2023/03/18 16:43:02;;;;;;;;;;;;;;;;;;5055990;28;7124;-81
2023/03/18 16:45:30;;;;;;;;;;;;;;;;;;5056186;28;7002;-81
2023/03/18 16:48:02;;;;;;;;;;;;;;;;;;5055843;28;7232;-81
2023/03/18 16:50:37;;;;;;;;;;;;;;;;;;5056061;28;7217;-81
2023/03/18 16:53:17;;;;;;;;;;;;;;;;;;5056186;28;7157;-81
2023/03/18 16:55:46;;;;;;;;;;;;;;;;;;5056167;28;7163;-81
2023/03/18 16:58:16;;;;;;;;;;;;;;;;;;5055959;28;7196;-81
2023/03/18 17:00:45;;;;;;;;;;;;;;;;;;5055960;28;7418;-80
2023/03/18 17:03:12;;;;;;;;;;;;;;;;;;5055905;28;7363;-81
2023/03/18 17:05:38;;;;;;;;;;;;;;;;;;5055191;28;6877;-81
2023/03/18 17:11:26;;;;;;;;;;;;;;;;;;5077602;28;7485;-81
2023/03/18 17:13:51;;;;;;;;;;;;;;;;;;5073238;28;7301;-81
2023/03/18 17:16:18;;;;;;;;;;;;;;;;;;5074210;28;8547;-81
2023/03/18 17:18:50;;;;;;;;;;;;;;;;;;5073444;28;7190;-81
2023/03/18 17:21:15;;;;;;;;;;;;;;;;;;5069171;28;7084;-81
2023/03/18 17:23:41;;;;;;;;;;;;;;;;;;5075624;28;7201;-81
2023/03/18 17:26:13;;;;;;;;;;;;;;;;;;5061376;28;7205;-81
2023/03/18 17:28:42;;;;;;;;;;;;;;;;;;5054834;28;8024;-81
2023/03/18 17:31:09;;;;;;;;;;;;;;;;;;5057054;28;7463;-81
2023/03/18 17:33:36;;;;;;;;;;;;;;;;;;5055303;28;7585;-81
2023/03/18 17:36:03;;;;;;;;;;;;;;;;;;5055619;28;6978;-81
2023/03/18 17:38:55;;;;;;;;;;;;;;;;;;5074902;28;7268;-81
2023/03/18 17:41:21;;;;;;;;;;;;;;;;;;5075052;28;7147;-81
2023/03/18 17:43:47;;;;;;;;;;;;;;;;;;5075247;28;6999;-81
2023/03/18 17:46:31;;;;;;;;;;;;;;;;;;5075150;28;7419;-81
2023/03/18 17:48:58;;;;;;;;;;;;;;;;;;5075100;28;7609;-81
2023/03/18 17:51:25;;;;;;;;;;;;;;;;;;5075011;28;7196;-81
2023/03/18 17:57:02;;;;;;;;;;;;;;;;;;5074739;28;6715;-81
2023/03/18 17:59:28;;;;;;;;;;;;;;;;;;5074837;28;7436;-81
2023/03/18 18:02:26;;;;;;;;;;;;;;;;;;5074962;28;7561;-81
2023/03/18 18:04:53;;;;;;;;;;;;;;;;;;5051668;28;7276;-78
2023/03/18 18:07:20;;;;;;;;;;;;;;;;;;5074891;28;7477;-78
2023/03/18 18:09:58;;;;;;;;;;;;;;;;;;5074879;28;6987;-78
2023/03/18 18:12:24;;;;;;;;;;;;;;;;;;5075004;28;7197;-78
2023/03/18 18:14:49;;;;;;;;;;;;;;;;;;5076215;28;7217;-81
2023/03/18 18:17:16;;;;;;;;;;;;;;;;;;5074773;28;7159;-81
2023/03/18 18:22:35;;;;;;;;;;;;;;;;;;5075084;28;7047;-81
2023/03/18 18:31:36;;;;;;;;;;;;;;;;;;5075229;28;7294;-77
2023/03/18 18:34:02;;;;;;;;;;;;;;;;;;5074713;28;7060;-77
2023/03/18 18:39:32;;;;;;;;;;;;;;;;;;5074207;28;6703;-78
2023/03/18 18:41:58;;;;;;;;;;;;;;;;;;5077411;28;7446;-77
2023/03/18 18:44:46;;;;;;;;;;;;;;;;;;5080056;28;7053;-77
2023/03/18 18:47:18;;;;;;;;;;;;;;;;;;5078405;28;6991;-78
2023/03/18 18:52:40;;;;;;;;;;;;;;;;;;5078815;28;6782;-77
2023/03/18 18:55:06;;;;;;;;;;;;;;;;;;5078336;28;7095;-78
2023/03/18 18:57:34;;;;;;;;;;;;;;;;;;5078183;28;6934;-77
2023/03/18 19:03:02;;;;;;;;;;;;;;;;;;5078136;28;6698;-77
2023/03/18 19:05:39;;;;;;;;;;;;;;;;;;5078215;28;7129;-77
2023/03/18 19:08:05;;;;;;;;;;;;;;;;;;5078224;28;7511;-77
2023/03/18 19:10:31;;;;;;;;;;;;;;;;;;5078056;28;6978;-77
2023/03/18 19:12:56;;;;;;;;;;;;;;;;;;5078203;28;7038;-77
2023/03/18 19:15:22;;;;;;;;;;;;;;;;;;5078052;28;7155;-77
2023/03/18 19:17:48;;;;;;;;;;;;;;;;;;5077607;28;7318;-77
2023/03/18 19:23:28;;;;;;;;;;;;;;;;;;5077798;28;6689;-77
2023/03/18 19:25:55;;;;;;;;;;;;;;;;;;5077744;28;7502;-77
2023/03/18 19:31:25;;;;;;;;;;;;;;;;;;5078116;28;7066;-77
2023/03/18 19:34:25;;;;;;;;;;;;;;;;;;5077661;28;7290;-77
2023/03/18 19:36:54;;;;;;;;;;;;;;;;;;5079150;28;7098;-77
2023/03/18 19:45:49;;;;;;;;;;;;;;;;;;5076506;28;6743;-75
2023/03/18 19:48:17;;;;;;;;;;;;;;;;;;5078070;28;7198;-75
2023/03/18 19:50:43;;;;;;;;;;;;;;;;;;5078753;28;7063;-75
2023/03/18 19:53:13;;;;;;;;;;;;;;;;;;5077109;28;7016;-75
2023/03/18 19:55:40;;;;;;;;;;;;;;;;;;5077401;28;7292;-75
2023/03/18 19:58:12;;;;;;;;;;;;;;;;;;5076788;28;6866;-75
2023/03/18 20:01:11;;;;;;;;;;;;;;;;;;5073000;28;7037;-75
2023/03/18 20:03:36;;;;;;;;;;;;;;;;;;5060817;28;6968;-75
2023/03/18 20:06:02;;;;;;;;;;;;;;;;;;5056742;28;7128;-75
2023/03/18 20:08:44;;;;;;;;;;;;;;;;;;5056667;28;6959;-75
2023/03/18 20:11:14;;;;;;;;;;;;;;;;;;5064776;28;7468;-80
2023/03/18 20:13:54;;;;;;;;;;;;;;;;;;5077337;28;7005;-81
2023/03/18 20:16:20;;;;;;;;;;;;;;;;;;5078026;28;7424;-81
2023/03/18 20:18:46;;;;;;;;;;;;;;;;;;5077826;28;7193;-81
2023/03/18 20:21:31;;;;;;;;;;;;;;;;;;5076531;28;7221;-81
2023/03/18 20:24:12;;;;;;;;;;;;;;;;;;5076350;28;7239;-81
2023/03/18 20:27:10;;;;;;;;;;;;;;;;;;5076395;28;7220;-81
2023/03/18 20:29:36;;;;;;;;;;;;;;;;;;5080842;28;7249;-81
2023/03/18 20:32:26;;;;;;;;;;;;;;;;;;5079702;28;7080;-81
2023/03/18 20:34:52;;;;;;;;;;;;;;;;;;5076739;28;7056;-81
2023/03/18 20:37:33;;;;;;;;;;;;;;;;;;5076489;28;7133;-81
2023/03/18 20:40:00;;;;;;;;;;;;;;;;;;5076244;28;7062;-81
2023/03/18 20:42:40;;;;;;;;;;;;;;;;;;5076066;28;7272;-81
2023/03/18 20:45:11;;;;;;;;;;;;;;;;;;5076370;28;7010;-81